Time;durP1;ratioP1;P1;durP2;ratioP2;P2;SDS_P1;SDS_P2;PMS_P1;PMS_P2;Temp;Humidity;BMP_temperature;BMP_pressure;BME280_temperature;BME280_humidity;BME280_pressure;Samples;Min_cycle;Max_cycle;Signal;HPM_P1;HPM_P2
2022/08/27 00:01:31;;;;;;;9.60;8.80;;;22.80;99.90;;;;;;5011425;28;20410;-67
2022/08/27 00:03:57;;;;;;;8.87;8.17;;;22.80;99.90;;;;;;5007923;28;20488;-67
2022/08/27 00:06:24;;;;;;;8.93;8.23;;;22.80;99.90;;;;;;5008052;28;20185;-71
2022/08/27 00:08:51;;;;;;;9.30;8.67;;;22.80;99.90;;;;;;4990983;28;20935;-67
2022/08/27 00:11:19;;;;;;;8.60;7.90;;;22.80;99.90;;;;;;4992771;28;20426;-67
2022/08/27 00:13:45;;;;;;;8.73;8.13;;;22.80;99.90;;;;;;5002832;28;20504;-67
2022/08/27 00:16:13;;;;;;;8.20;7.70;;;22.80;99.90;;;;;;5005641;28;20438;-67
2022/08/27 00:18:39;;;;;;;8.17;7.67;;;22.80;99.90;;;;;;4974289;28;20822;-67
2022/08/27 00:21:06;;;;;;;8.20;7.70;;;22.80;99.90;;;;;;4944701;28;20521;-67
2022/08/27 00:23:31;;;;;;;7.60;7.00;;;22.80;99.90;;;;;;5005446;28;20422;-67
2022/08/27 00:25:59;;;;;;;7.50;7.00;;;22.80;99.90;;;;;;5014018;28;20432;-67
2022/08/27 00:28:26;;;;;;;7.20;6.70;;;22.90;99.90;;;;;;5014644;28;20175;-68
2022/08/27 00:30:54;;;;;;;7.70;7.10;;;22.80;99.90;;;;;;5013821;28;20429;-67
2022/08/27 00:33:21;;;;;;;8.47;7.67;;;22.90;99.90;;;;;;5011903;28;20444;-72
2022/08/27 00:35:46;;;;;;;8.80;8.20;;;22.90;99.90;;;;;;5012810;28;20472;-66
2022/08/27 00:38:12;;;;;;;8.20;7.60;;;22.90;99.90;;;;;;4995765;28;20414;-68
2022/08/27 00:40:39;;;;;;;8.73;7.93;;;22.80;99.90;;;;;;4998724;28;20188;-68
2022/08/27 00:43:05;;;;;;;8.80;8.10;;;22.80;99.90;;;;;;5006846;28;20178;-67
2022/08/27 00:45:35;;;;;;;7.57;7.00;;;22.90;99.90;;;;;;5014554;28;20824;-66
2022/08/27 00:48:03;;;;;;;7.63;6.93;;;22.90;99.90;;;;;;5009342;28;20187;-67
2022/08/27 00:50:40;;;;;;;7.47;7.00;;;22.80;99.90;;;;;;5002275;28;20886;-67
2022/08/27 00:53:12;;;;;;;8.33;7.70;;;22.80;99.90;;;;;;4985558;28;20421;-67
2022/08/27 00:55:43;;;;;;;8.47;7.70;;;22.70;99.90;;;;;;5004247;28;20425;-68
2022/08/27 00:58:26;;;;;;;6.97;6.57;;;22.70;99.90;;;;;;5005631;28;20450;-67
2022/08/27 01:00:52;;;;;;;7.17;6.77;;;22.60;99.90;;;;;;4991526;28;20501;-67
2022/08/27 01:03:18;;;;;;;7.37;6.87;;;22.60;99.90;;;;;;5003243;28;20527;-67
2022/08/27 01:05:47;;;;;;;6.97;6.47;;;22.60;99.90;;;;;;5002989;28;20485;-67
2022/08/27 01:08:17;;;;;;;6.77;6.37;;;22.60;99.90;;;;;;5002732;28;20242;-66
2022/08/27 01:10:45;;;;;;;6.80;6.30;;;22.60;99.90;;;;;;5004731;28;20480;-67
2022/08/27 01:13:15;;;;;;;7.10;6.60;;;22.60;99.90;;;;;;5007283;28;20422;-67
2022/08/27 01:15:41;;;;;;;7.73;7.23;;;22.60;99.90;;;;;;5002056;28;20410;-68
2022/08/27 01:18:09;;;;;;;8.57;8.07;;;22.60;99.90;;;;;;5002114;28;20427;-67
2022/08/27 01:20:47;;;;;;;7.23;6.73;;;22.60;99.90;;;;;;5004672;28;20434;-67
2022/08/27 01:23:26;;;;;;;7.27;6.80;;;22.50;99.90;;;;;;5003008;28;20395;-67
2022/08/27 01:25:52;;;;;;;7.73;7.13;;;22.60;99.90;;;;;;5004167;28;20514;-67
2022/08/27 01:28:20;;;;;;;7.43;6.93;;;22.60;99.90;;;;;;5002424;28;20421;-68
2022/08/27 01:30:46;;;;;;;7.30;6.70;;;22.60;99.90;;;;;;5004188;28;20450;-67
2022/08/27 01:33:15;;;;;;;7.93;7.43;;;22.60;99.90;;;;;;5000779;28;20418;-67
2022/08/27 01:35:43;;;;;;;9.07;8.20;;;22.50;99.90;;;;;;5002471;28;20445;-67
2022/08/27 01:38:09;;;;;;;7.73;7.20;;;22.50;99.90;;;;;;5002093;28;20419;-68
2022/08/27 01:40:36;;;;;;;7.47;7.07;;;22.50;99.90;;;;;;5001978;28;20425;-67
2022/08/27 01:43:03;;;;;;;8.27;7.70;;;22.40;99.90;;;;;;5006917;28;20513;-67
2022/08/27 01:45:33;;;;;;;8.50;7.80;;;22.40;99.90;;;;;;5004373;28;20474;-67
2022/08/27 01:47:59;;;;;;;8.10;7.50;;;22.40;99.90;;;;;;5002279;28;20418;-67
2022/08/27 01:50:30;;;;;;;7.47;6.80;;;22.20;99.90;;;;;;5001907;28;20430;-67
2022/08/27 01:53:00;;;;;;;7.77;7.07;;;22.20;99.90;;;;;;5000470;28;20489;-67
2022/08/27 01:55:26;;;;;;;7.37;6.97;;;22.10;99.90;;;;;;5001409;28;20445;-67
2022/08/27 01:57:53;;;;;;;6.47;6.07;;;22.10;99.90;;;;;;5002301;28;20776;-67
2022/08/27 02:00:26;;;;;;;5.93;5.60;;;22.10;99.90;;;;;;5003036;28;20414;-67
2022/08/27 02:02:52;;;;;;;7.00;6.60;;;22.10;99.90;;;;;;5002232;28;20470;-67
2022/08/27 02:05:18;;;;;;;5.97;5.60;;;22.10;99.90;;;;;;5001585;28;20537;-68
2022/08/27 02:07:45;;;;;;;6.50;6.10;;;22.10;99.90;;;;;;4999238;28;20442;-67
2022/08/27 02:10:13;;;;;;;7.40;6.83;;;22.00;99.90;;;;;;5003855;28;20509;-67
2022/08/27 02:12:38;;;;;;;6.70;6.10;;;22.00;99.90;;;;;;5000165;28;20837;-68
2022/08/27 02:15:05;;;;;;;6.03;5.63;;;22.00;99.90;;;;;;5005576;28;20434;-67
2022/08/27 02:17:31;;;;;;;5.93;5.60;;;22.00;99.90;;;;;;5007409;28;20258;-67
2022/08/27 02:19:59;;;;;;;6.80;6.30;;;22.00;99.90;;;;;;4993507;28;20504;-67
2022/08/27 02:22:26;;;;;;;6.80;6.30;;;21.90;99.90;;;;;;5005104;28;20179;-67
2022/08/27 02:24:52;;;;;;;6.60;6.30;;;21.90;99.90;;;;;;4988642;28;21052;-69
2022/08/27 02:27:19;;;;;;;6.10;5.80;;;21.90;99.90;;;;;;5003968;28;20415;-69
2022/08/27 02:29:46;;;;;;;6.20;5.70;;;21.90;99.90;;;;;;5000741;28;20513;-67
2022/08/27 02:32:13;;;;;;;6.90;6.50;;;21.80;99.90;;;;;;5001030;28;20846;-67
2022/08/27 02:34:39;;;;;;;6.60;6.20;;;21.80;99.90;;;;;;4991759;28;20440;-67
2022/08/27 02:37:06;;;;;;;7.17;6.67;;;21.80;99.90;;;;;;5002111;28;20426;-67
2022/08/27 02:39:33;;;;;;;7.37;6.83;;;21.80;99.90;;;;;;5002872;28;20181;-67
2022/08/27 02:41:59;;;;;;;6.80;6.30;;;21.80;99.90;;;;;;5003709;28;20431;-68
2022/08/27 02:44:25;;;;;;;7.77;7.27;;;21.70;99.90;;;;;;4980026;28;20557;-71
2022/08/27 02:46:51;;;;;;;6.63;6.23;;;21.80;99.90;;;;;;5004815;28;20843;-67
2022/08/27 02:49:17;;;;;;;7.47;6.97;;;21.70;99.90;;;;;;5001595;28;20423;-66
2022/08/27 02:51:43;;;;;;;7.23;6.73;;;21.70;99.90;;;;;;4997989;28;20210;-67
2022/08/27 02:54:09;;;;;;;6.50;6.10;;;21.70;99.90;;;;;;5000155;28;20198;-68
2022/08/27 02:56:35;;;;;;;7.43;6.93;;;21.70;99.90;;;;;;4971702;28;20442;-67
2022/08/27 02:59:01;;;;;;;6.47;6.00;;;21.70;99.90;;;;;;5001410;28;20418;-67
2022/08/27 03:01:27;;;;;;;6.83;6.40;;;21.70;99.90;;;;;;4984190;28;20430;-67
2022/08/27 03:03:53;;;;;;;6.80;6.33;;;21.70;99.90;;;;;;4997718;28;20586;-67
2022/08/27 03:06:18;;;;;;;7.07;6.67;;;21.60;99.90;;;;;;5003916;28;20661;-68
2022/08/27 03:08:44;;;;;;;7.10;6.43;;;21.60;99.90;;;;;;4997623;28;20185;-67
2022/08/27 03:11:11;;;;;;;6.87;6.43;;;21.60;99.90;;;;;;5002947;28;20179;-68
2022/08/27 03:13:40;;;;;;;8.07;7.43;;;21.60;99.90;;;;;;5001135;28;20171;-67
2022/08/27 03:16:06;;;;;;;6.93;6.53;;;21.60;99.90;;;;;;5002020;28;20442;-67
2022/08/27 03:18:32;;;;;;;7.00;6.50;;;21.60;99.90;;;;;;5002322;28;20427;-67
2022/08/27 03:20:59;;;;;;;6.67;6.27;;;21.60;99.90;;;;;;5004467;28;20412;-67
2022/08/27 03:23:30;;;;;;;7.77;7.07;;;21.60;99.90;;;;;;5001447;28;20407;-71
2022/08/27 03:25:58;;;;;;;8.10;7.30;;;21.60;99.90;;;;;;4999950;28;20477;-68
2022/08/27 03:28:28;;;;;;;8.23;7.63;;;21.60;99.90;;;;;;5003213;28;20835;-71
2022/08/27 03:30:59;;;;;;;7.87;7.37;;;21.60;99.90;;;;;;4999652;28;20433;-67
2022/08/27 03:33:29;;;;;;;7.67;7.17;;;21.60;99.90;;;;;;5001700;28;20419;-71
2022/08/27 03:35:54;;;;;;;8.20;7.60;;;21.60;99.90;;;;;;5000112;28;20824;-69
2022/08/27 03:38:21;;;;;;;8.40;7.70;;;21.60;99.90;;;;;;5000092;28;20426;-67
2022/08/27 03:40:47;;;;;;;8.17;7.57;;;21.60;99.90;;;;;;5001640;28;20185;-67
2022/08/27 03:43:14;;;;;;;8.40;7.80;;;21.60;99.90;;;;;;5002266;28;20430;-67
2022/08/27 03:45:42;;;;;;;8.07;7.50;;;21.60;99.90;;;;;;5000831;28;20466;-67
2022/08/27 03:48:09;;;;;;;9.13;8.27;;;21.60;99.90;;;;;;5000125;28;21188;-67
2022/08/27 03:50:38;;;;;;;8.37;7.63;;;21.60;99.90;;;;;;5001094;28;20422;-67
2022/08/27 03:53:04;;;;;;;7.63;7.13;;;21.60;99.90;;;;;;5003231;28;20425;-67
2022/08/27 03:55:30;;;;;;;8.37;7.57;;;21.60;99.90;;;;;;5003546;28;20425;-67
2022/08/27 03:57:56;;;;;;;8.70;8.10;;;21.50;99.90;;;;;;5008263;28;20425;-66
2022/08/27 04:00:23;;;;;;;8.67;8.07;;;21.50;99.90;;;;;;5005070;28;20218;-72
2022/08/27 04:02:50;;;;;;;8.03;7.37;;;21.50;99.90;;;;;;5002928;28;20223;-68
2022/08/27 04:05:16;;;;;;;8.27;7.77;;;21.50;99.90;;;;;;5006564;28;20816;-67
2022/08/27 04:07:42;;;;;;;7.23;6.83;;;21.50;99.90;;;;;;5008354;28;20528;-67
2022/08/27 04:10:10;;;;;;;7.33;6.87;;;21.60;99.90;;;;;;5003448;28;20418;-71
2022/08/27 04:12:36;;;;;;;8.30;7.70;;;21.50;99.90;;;;;;5002647;28;20514;-67
2022/08/27 04:15:03;;;;;;;10.10;9.30;;;21.50;99.90;;;;;;5004765;28;20430;-67
2022/08/27 04:17:30;;;;;;;9.50;8.80;;;21.50;99.90;;;;;;5001408;28;20461;-68
2022/08/27 04:19:58;;;;;;;9.00;8.30;;;21.50;99.90;;;;;;5005749;28;20422;-67
2022/08/27 04:22:25;;;;;;;9.20;8.60;;;21.50;99.90;;;;;;4960575;28;20417;-71
2022/08/27 04:24:51;;;;;;;7.80;7.30;;;21.50;99.90;;;;;;5002693;28;20463;-66
2022/08/27 04:27:17;;;;;;;9.37;8.57;;;21.50;99.90;;;;;;5004684;28;20428;-65
2022/08/27 04:29:43;;;;;;;9.67;8.97;;;21.50;99.90;;;;;;5002069;28;20421;-66
2022/08/27 04:32:09;;;;;;;10.40;9.50;;;21.50;99.90;;;;;;5005285;28;20452;-66
2022/08/27 04:34:35;;;;;;;7.60;7.10;;;21.60;99.90;;;;;;5001867;28;20203;-66
2022/08/27 04:37:01;;;;;;;9.47;8.77;;;21.60;99.90;;;;;;5006105;28;20537;-66
2022/08/27 04:39:28;;;;;;;10.63;9.83;;;21.60;99.90;;;;;;5001703;28;20442;-66
2022/08/27 04:41:57;;;;;;;8.60;7.90;;;21.60;99.90;;;;;;5004866;28;20458;-66
2022/08/27 04:44:25;;;;;;;9.63;8.87;;;21.60;99.90;;;;;;4971281;28;20463;-69
2022/08/27 04:46:55;;;;;;;9.77;8.97;;;21.60;99.90;;;;;;5002576;28;20434;-66
2022/08/27 04:49:21;;;;;;;10.47;9.67;;;21.60;99.90;;;;;;4969531;28;20819;-66
2022/08/27 04:51:47;;;;;;;8.40;7.70;;;21.60;99.90;;;;;;5008816;28;20426;-66
2022/08/27 04:54:12;;;;;;;9.20;8.60;;;21.60;99.90;;;;;;5001641;28;20180;-66
2022/08/27 04:56:38;;;;;;;8.57;8.00;;;21.60;99.90;;;;;;5004142;28;20237;-66
2022/08/27 04:59:06;;;;;;;9.13;8.43;;;21.60;99.90;;;;;;5006063;28;20666;-66
2022/08/27 05:01:33;;;;;;;9.03;8.40;;;21.60;99.90;;;;;;5001960;28;20175;-66
2022/08/27 05:03:59;;;;;;;8.60;8.00;;;21.60;99.90;;;;;;5004508;28;20464;-66
2022/08/27 05:06:26;;;;;;;8.30;7.70;;;21.60;99.90;;;;;;5003439;28;20447;-70
2022/08/27 05:08:53;;;;;;;7.20;6.70;;;21.60;99.90;;;;;;5002758;28;20412;-66
2022/08/27 05:11:21;;;;;;;6.33;5.93;;;21.60;99.90;;;;;;4994878;28;20420;-66
2022/08/27 05:13:47;;;;;;;6.77;6.37;;;21.60;99.90;;;;;;5002665;28;20419;-68
2022/08/27 05:16:19;;;;;;;7.37;6.87;;;21.60;99.90;;;;;;5006716;28;20430;-66
2022/08/27 05:18:46;;;;;;;10.33;9.33;;;21.60;99.90;;;;;;5003371;28;20491;-66
2022/08/27 05:21:21;;;;;;;9.20;8.30;;;21.50;99.90;;;;;;5002002;28;20485;-67
2022/08/27 05:23:47;;;;;;;9.63;8.73;;;21.50;99.90;;;;;;5000314;28;20436;-66
2022/08/27 05:26:13;;;;;;;7.57;7.00;;;21.50;99.90;;;;;;5004586;28;20457;-66
2022/08/27 05:28:39;;;;;;;8.97;8.13;;;21.50;99.90;;;;;;5003916;28;20502;-67
2022/08/27 05:31:09;;;;;;;8.30;7.70;;;21.50;99.90;;;;;;5005846;28;20877;-66
2022/08/27 05:33:39;;;;;;;9.27;8.50;;;21.50;99.90;;;;;;5008667;28;20186;-65
2022/08/27 05:36:07;;;;;;;9.63;8.93;;;21.50;99.90;;;;;;5003877;28;20533;-66
2022/08/27 05:38:33;;;;;;;10.03;9.20;;;21.40;99.90;;;;;;5003984;28;20407;-66
2022/08/27 05:41:11;;;;;;;10.23;9.20;;;21.40;99.90;;;;;;5002934;28;20434;-66
2022/08/27 05:43:40;;;;;;;14.37;9.90;;;21.40;99.90;;;;;;5008354;28;20975;-66
2022/08/27 05:46:10;;;;;;;11.33;9.40;;;21.30;99.90;;;;;;5002595;28;20461;-67
2022/08/27 05:48:38;;;;;;;9.80;9.10;;;21.30;99.90;;;;;;4992301;28;20793;-66
2022/08/27 05:51:10;;;;;;;153.40;127.37;;;21.30;99.90;;;;;;4989978;28;20430;-66
2022/08/27 05:53:36;;;;;;;160.13;141.37;;;21.30;99.90;;;;;;5008878;28;20920;-66
2022/08/27 05:56:02;;;;;;;15.23;13.93;;;21.40;99.90;;;;;;5004754;28;20533;-66
2022/08/27 06:01:23;;;;;;;11.40;10.30;;;21.40;99.90;;;;;;4951646;28;20217;-71
2022/08/27 06:03:51;;;;;;;9.73;9.13;;;21.40;99.90;;;;;;5002701;28;20454;-66
2022/08/27 06:06:17;;;;;;;11.43;10.17;;;21.40;99.90;;;;;;5005788;28;20930;-66
2022/08/27 06:08:43;;;;;;;10.23;8.67;;;21.40;99.90;;;;;;5002303;28;20527;-66
2022/08/27 06:11:10;;;;;;;10.77;9.77;;;21.40;99.90;;;;;;5006838;28;20902;-67
2022/08/27 06:13:36;;;;;;;10.30;9.40;;;21.30;99.90;;;;;;5002003;28;20415;-66
2022/08/27 06:16:04;;;;;;;10.73;9.83;;;21.40;99.90;;;;;;5003380;28;20529;-66
2022/08/27 06:18:31;;;;;;;11.37;10.47;;;21.30;99.90;;;;;;5000430;28;20449;-69
2022/08/27 06:20:57;;;;;;;10.60;9.80;;;21.30;99.90;;;;;;5004532;28;20430;-66
2022/08/27 06:23:24;;;;;;;11.80;10.80;;;21.30;99.90;;;;;;4984637;28;20415;-71
2022/08/27 06:25:50;;;;;;;11.90;10.90;;;21.30;99.90;;;;;;5001966;28;20470;-67
2022/08/27 06:28:20;;;;;;;12.07;10.90;;;21.30;99.90;;;;;;4993449;28;20442;-66
2022/08/27 06:30:45;;;;;;;12.20;11.07;;;21.30;99.90;;;;;;5004302;28;20476;-66
2022/08/27 06:33:11;;;;;;;12.10;11.10;;;21.30;99.90;;;;;;5003764;28;20838;-66
2022/08/27 06:35:37;;;;;;;11.90;11.03;;;21.20;99.90;;;;;;5004599;28;20213;-66
2022/08/27 06:38:03;;;;;;;12.80;11.60;;;21.30;99.90;;;;;;5004767;28;20191;-66
2022/08/27 06:40:28;;;;;;;13.10;11.73;;;21.30;99.90;;;;;;5004435;28;20619;-66
2022/08/27 06:42:54;;;;;;;14.43;12.67;;;21.40;99.90;;;;;;5003511;28;20187;-65
2022/08/27 06:45:20;;;;;;;11.10;10.10;;;21.90;99.90;;;;;;5002605;28;20230;-68
2022/08/27 06:47:45;;;;;;;10.17;9.27;;;22.50;99.90;;;;;;4986549;28;20197;-66
2022/08/27 06:50:11;;;;;;;15.13;12.43;;;23.10;99.90;;;;;;5001250;28;20180;-67
2022/08/27 06:52:37;;;;;;;18.90;16.80;;;23.60;99.90;;;;;;4920088;28;20234;-64
2022/08/27 06:55:03;;;;;;;8.40;7.70;;;23.80;99.90;;;;;;5001869;28;20550;-64
2022/08/27 06:57:29;;;;;;;9.30;8.53;;;24.00;99.90;;;;;;5004889;28;20313;-67
2022/08/27 06:59:55;;;;;;;9.27;8.53;;;24.10;99.90;;;;;;5003654;28;20520;-67
2022/08/27 07:02:21;;;;;;;9.70;9.00;;;24.10;99.90;;;;;;5000495;28;20692;-68
2022/08/27 07:04:47;;;;;;;9.40;8.60;;;24.10;99.90;;;;;;5005092;28;20463;-67
2022/08/27 07:07:13;;;;;;;9.53;8.83;;;24.10;99.90;;;;;;5002505;28;20215;-67
2022/08/27 07:09:39;;;;;;;8.93;8.23;;;24.10;99.90;;;;;;5003388;28;20260;-67
2022/08/27 07:12:05;;;;;;;9.37;8.53;;;24.10;99.80;;;;;;5006715;28;20186;-66
2022/08/27 07:14:33;;;;;;;9.53;8.73;;;24.00;99.90;;;;;;5000012;28;20419;-67
2022/08/27 07:16:58;;;;;;;11.27;9.13;;;24.00;99.90;;;;;;5004570;28;20421;-66
2022/08/27 07:19:24;;;;;;;9.50;8.70;;;24.00;99.90;;;;;;5001690;28;20737;-67
2022/08/27 07:21:50;;;;;;;13.00;11.57;;;24.00;99.90;;;;;;5004748;28;20248;-67
2022/08/27 07:24:17;;;;;;;16.47;14.87;;;23.90;99.90;;;;;;5002833;28;20234;-66
2022/08/27 07:26:43;;;;;;;30.70;27.43;;;23.90;99.90;;;;;;5003181;28;20997;-66
2022/08/27 07:29:12;;;;;;;10.83;10.03;;;23.90;99.90;;;;;;5001122;28;20414;-66
2022/08/27 07:31:38;;;;;;;8.77;8.07;;;23.90;99.90;;;;;;5002036;28;20325;-66
2022/08/27 07:34:05;;;;;;;8.67;7.90;;;23.90;99.90;;;;;;5004054;28;20525;-66
2022/08/27 07:36:31;;;;;;;11.77;10.60;;;23.90;99.90;;;;;;5005141;28;20452;-68
2022/08/27 07:38:57;;;;;;;9.30;8.50;;;23.90;99.90;;;;;;4954415;28;20417;-66
2022/08/27 07:41:24;;;;;;;6.63;6.20;;;24.10;99.90;;;;;;5001324;28;20423;-72
2022/08/27 07:46:34;;;;;;;40.00;36.03;;;24.10;99.80;;;;;;5000774;28;20419;-68
2022/08/27 07:49:00;;;;;;;57.03;44.77;;;24.10;99.70;;;;;;4993228;28;20433;-69
2022/08/27 07:51:29;;;;;;;18.70;16.90;;;24.10;99.60;;;;;;4999374;28;20784;-68
2022/08/27 07:53:55;;;;;;;7.60;6.83;;;24.10;99.80;;;;;;5001842;28;20299;-68
2022/08/27 07:56:21;;;;;;;8.40;7.60;;;24.10;99.40;;;;;;5001994;28;20438;-68
2022/08/27 07:58:47;;;;;;;8.67;7.97;;;24.00;99.70;;;;;;4998824;28;20803;-68
2022/08/27 08:01:13;;;;;;;9.33;8.53;;;24.00;99.70;;;;;;4999629;28;20406;-68
2022/08/27 08:03:39;;;;;;;8.07;7.47;;;24.00;99.80;;;;;;5001938;28;20253;-68
2022/08/27 08:06:11;;;;;;;8.50;7.80;;;24.00;99.30;;;;;;4997747;28;20214;-68
2022/08/27 08:08:41;;;;;;;8.20;7.50;;;24.00;99.80;;;;;;5000181;28;20419;-67
2022/08/27 08:11:09;;;;;;;9.30;8.60;;;24.00;99.80;;;;;;5010377;28;20940;-67
2022/08/27 08:13:35;;;;;;;30.93;27.47;;;24.00;99.40;;;;;;5001480;28;20418;-68
2022/08/27 08:16:00;;;;;;;109.07;93.40;;;24.00;99.60;;;;;;4970076;28;20417;-67
2022/08/27 08:18:27;;;;;;;14.03;12.73;;;24.00;99.50;;;;;;5002579;28;20410;-68
2022/08/27 08:20:59;;;;;;;12.07;10.97;;;24.00;99.60;;;;;;5000386;28;20636;-67
2022/08/27 08:23:26;;;;;;;28.17;25.20;;;23.90;99.70;;;;;;5008659;28;20402;-71
2022/08/27 08:25:51;;;;;;;12.10;11.00;;;23.90;99.80;;;;;;5005363;28;20461;-72
2022/08/27 08:28:17;;;;;;;10.97;9.97;;;24.00;99.60;;;;;;4999770;28;20442;-68
2022/08/27 08:30:43;;;;;;;14.00;12.70;;;24.00;99.60;;;;;;5001696;28;20555;-71
2022/08/27 08:33:09;;;;;;;15.93;14.30;;;23.90;99.70;;;;;;4999463;28;20231;-68
2022/08/27 08:35:38;;;;;;;9.20;8.37;;;24.00;99.70;;;;;;4997960;28;20650;-70
2022/08/27 08:38:03;;;;;;;10.43;9.53;;;24.00;99.60;;;;;;5004072;28;20237;-69
2022/08/27 08:40:42;;;;;;;9.57;8.83;;;24.00;99.60;;;;;;5000795;28;20439;-68
2022/08/27 08:43:20;;;;;;;11.27;10.17;;;24.00;99.60;;;;;;4992252;28;20198;-67
2022/08/27 08:45:47;;;;;;;13.20;11.90;;;23.90;99.40;;;;;;4992145;28;21325;-67
2022/08/27 08:48:22;;;;;;;11.43;10.40;;;23.90;99.30;;;;;;5001380;28;20435;-67
2022/08/27 08:51:28;;;;;;;9.90;9.10;;;23.90;99.50;;;;;;4998151;28;20425;-67
2022/08/27 08:54:08;;;;;;;10.30;9.43;;;23.90;99.60;;;;;;4995520;28;20427;-68
2022/08/27 08:56:50;;;;;;;9.80;8.80;;;23.90;99.40;;;;;;4998218;28;20437;-67
2022/08/27 08:59:38;;;;;;;9.50;8.50;;;24.00;99.40;;;;;;5005382;28;20937;-67
2022/08/27 09:02:11;;;;;;;8.40;7.70;;;23.90;99.50;;;;;;5003773;28;20430;-69
2022/08/27 09:04:37;;;;;;;9.27;8.37;;;23.90;99.40;;;;;;5005987;28;20465;-69
2022/08/27 09:07:14;;;;;;;8.30;7.60;;;23.90;99.60;;;;;;5006200;28;20511;-69
2022/08/27 09:10:09;;;;;;;7.60;6.90;;;23.90;99.50;;;;;;4999969;28;20627;-69
2022/08/27 09:12:34;;;;;;;6.97;6.37;;;23.90;99.40;;;;;;5000665;28;20418;-69
2022/08/27 09:15:09;;;;;;;8.17;7.40;;;23.90;99.50;;;;;;5001486;28;20488;-68
2022/08/27 09:17:35;;;;;;;6.73;6.23;;;23.90;99.70;;;;;;4999482;28;20285;-70
2022/08/27 09:20:03;;;;;;;7.07;6.50;;;23.90;99.80;;;;;;5002699;28;20520;-69
2022/08/27 09:22:57;;;;;;;8.33;7.00;;;23.90;99.90;;;;;;4957149;28;20497;-67
2022/08/27 09:25:36;;;;;;;7.07;6.50;;;23.90;99.80;;;;;;5009928;28;20461;-70
2022/08/27 09:31:10;;;;;;;7.27;6.67;;;24.10;99.40;;;;;;5000629;28;20425;-69
2022/08/27 09:33:36;;;;;;;7.57;6.87;;;24.10;99.00;;;;;;5004600;28;20441;-69
2022/08/27 09:36:06;;;;;;;7.00;6.40;;;24.10;98.80;;;;;;5008441;28;20459;-69
2022/08/27 09:38:34;;;;;;;7.07;6.53;;;24.20;99.00;;;;;;4997365;28;20275;-70
2022/08/27 09:41:09;;;;;;;7.23;6.63;;;24.20;98.80;;;;;;4993652;28;20440;-69
2022/08/27 09:43:35;;;;;;;7.70;7.10;;;24.30;98.60;;;;;;5000489;28;20443;-70
2022/08/27 09:46:14;;;;;;;7.37;6.77;;;24.30;98.50;;;;;;5024015;28;20945;-69
2022/08/27 09:48:39;;;;;;;6.53;6.03;;;24.40;98.10;;;;;;4998840;28;20492;-69
2022/08/27 09:51:21;;;;;;;7.73;5.80;;;24.40;97.90;;;;;;5005095;28;20850;-69
2022/08/27 09:53:51;;;;;;;6.40;5.90;;;24.40;97.60;;;;;;5003638;28;21066;-69
2022/08/27 09:56:47;;;;;;;8.93;8.27;;;24.40;97.60;;;;;;4984142;28;21104;-65
2022/08/27 09:59:26;;;;;;;143.10;126.77;;;24.50;97.50;;;;;;4994950;28;20514;-65
2022/08/27 10:02:04;;;;;;;12.97;11.10;;;24.50;97.00;;;;;;5004796;28;20430;-65
2022/08/27 10:04:37;;;;;;;6.67;6.00;;;24.50;97.40;;;;;;5002832;28;20474;-68
2022/08/27 10:07:23;;;;;;;10.03;9.17;;;24.50;97.10;;;;;;5002814;28;20427;-65
2022/08/27 10:10:01;;;;;;;11.20;8.03;;;24.50;97.10;;;;;;5003445;28;20434;-65
2022/08/27 10:12:35;;;;;;;10.30;9.37;;;24.50;97.00;;;;;;5002817;28;20482;-68
2022/08/27 10:15:04;;;;;;;6.70;6.17;;;24.60;96.90;;;;;;5003015;28;20421;-65
2022/08/27 10:17:41;;;;;;;6.33;5.80;;;24.60;96.20;;;;;;5002053;28;20503;-65
2022/08/27 10:20:26;;;;;;;6.73;6.13;;;24.60;96.10;;;;;;5002677;28;20458;-65
2022/08/27 10:23:00;;;;;;;8.30;7.57;;;24.60;96.10;;;;;;5001496;28;20840;-65
2022/08/27 10:25:44;;;;;;;7.63;6.80;;;24.50;96.60;;;;;;5004561;28;20488;-65
2022/08/27 10:28:35;;;;;;;6.83;6.20;;;24.60;96.30;;;;;;5001760;28;20436;-65
2022/08/27 10:31:22;;;;;;;5.60;5.10;;;24.50;96.30;;;;;;5005101;28;20434;-65
2022/08/27 10:34:00;;;;;;;5.93;5.43;;;24.50;96.10;;;;;;5002064;28;20423;-65
2022/08/27 10:36:31;;;;;;;5.60;5.10;;;24.50;96.30;;;;;;5002770;28;20407;-65
2022/08/27 10:39:33;;;;;;;5.80;5.40;;;24.50;95.40;;;;;;5000368;28;20407;-65
2022/08/27 10:42:25;;;;;;;8.20;5.30;;;24.50;95.70;;;;;;5006147;28;20437;-65
2022/08/27 10:45:17;;;;;;;6.50;6.00;;;24.40;95.30;;;;;;4985824;28;21043;-65
2022/08/27 10:48:05;;;;;;;40.40;36.23;;;24.40;95.80;;;;;;4993799;28;20841;-65
2022/08/27 10:50:57;;;;;;;27.73;24.80;;;24.40;95.50;;;;;;5004218;28;21839;-65
2022/08/27 10:53:28;;;;;;;27.93;25.23;;;24.40;95.80;;;;;;5001669;28;20464;-65
2022/08/27 10:56:25;;;;;;;175.43;141.10;;;24.40;95.70;;;;;;5001287;28;20428;-65
2022/08/27 10:58:57;;;;;;;20.37;18.23;;;24.40;95.80;;;;;;5000684;28;20469;-65
2022/08/27 11:01:29;;;;;;;11.77;10.70;;;24.30;95.60;;;;;;5000296;28;20426;-65
2022/08/27 11:04:09;;;;;;;8.03;7.43;;;24.30;95.90;;;;;;5009544;28;20458;-65
2022/08/27 11:06:47;;;;;;;7.83;6.33;;;24.40;96.00;;;;;;5012750;28;20410;-65
2022/08/27 11:09:12;;;;;;;11.53;10.50;;;24.40;96.10;;;;;;5012875;28;20414;-65
2022/08/27 11:11:41;;;;;;;8.70;7.97;;;24.50;95.90;;;;;;5011766;28;20544;-65
2022/08/27 11:14:15;;;;;;;14.03;12.40;;;24.50;95.80;;;;;;5004763;28;20179;-65
2022/08/27 11:16:47;;;;;;;10.97;8.27;;;24.50;95.90;;;;;;5001386;28;20870;-65
2022/08/27 11:19:30;;;;;;;6.93;6.33;;;24.60;95.30;;;;;;5003263;28;20436;-65
2022/08/27 11:22:09;;;;;;;9.37;8.30;;;24.60;95.10;;;;;;5000642;28;20442;-65
2022/08/27 11:24:42;;;;;;;12.93;11.73;;;24.70;95.40;;;;;;5000251;28;20445;-66
2022/08/27 11:27:08;;;;;;;11.40;10.30;;;24.70;95.40;;;;;;5001524;28;20427;-65
2022/08/27 11:30:01;;;;;;;12.87;10.77;;;24.70;95.10;;;;;;4992992;28;20505;-66
2022/08/27 11:33:00;;;;;;;12.57;11.43;;;24.80;95.00;;;;;;5003364;28;20459;-65
2022/08/27 11:35:41;;;;;;;8.73;7.93;;;24.70;94.90;;;;;;5009214;28;20445;-65
2022/08/27 11:38:26;;;;;;;5.70;5.20;;;24.70;94.30;;;;;;5001276;28;20767;-65
2022/08/27 11:41:15;;;;;;;6.23;5.63;;;24.70;94.00;;;;;;4992597;28;20840;-65
2022/08/27 11:43:43;;;;;;;6.17;5.53;;;24.70;93.80;;;;;;4983974;28;20425;-65
2022/08/27 11:46:10;;;;;;;19.17;17.37;;;24.70;93.70;;;;;;5003193;28;20476;-65
2022/08/27 11:48:42;;;;;;;5.10;4.70;;;24.70;93.50;;;;;;5009607;28;20449;-65
2022/08/27 11:51:35;;;;;;;5.80;5.40;;;24.70;93.30;;;;;;4991341;28;20778;-64
2022/08/27 11:54:24;;;;;;;7.20;4.97;;;24.70;93.20;;;;;;5000851;28;20410;-65
2022/08/27 11:56:50;;;;;;;10.30;9.40;;;24.70;93.10;;;;;;4997947;28;20406;-65
2022/08/27 11:59:32;;;;;;;11.73;10.60;;;24.80;93.00;;;;;;4994232;28;21029;-64
2022/08/27 12:02:21;;;;;;;18.07;16.23;;;24.80;92.90;;;;;;4994212;28;20426;-64
2022/08/27 12:04:47;;;;;;;5.03;4.63;;;24.90;93.10;;;;;;5011307;28;20469;-65
2022/08/27 12:07:13;;;;;;;5.30;4.80;;;24.90;92.90;;;;;;5009548;28;20429;-65
2022/08/27 12:10:10;;;;;;;5.60;5.10;;;24.80;92.90;;;;;;5011944;28;20882;-65
2022/08/27 12:12:54;;;;;;;4.97;4.60;;;24.80;93.10;;;;;;5012016;28;20526;-65
2022/08/27 12:15:48;;;;;;;4.50;4.20;;;24.80;93.10;;;;;;5001516;28;20784;-65
2022/08/27 12:18:37;;;;;;;4.70;4.37;;;24.80;92.90;;;;;;4972078;28;20423;-65
2022/08/27 12:21:11;;;;;;;3.93;3.63;;;24.80;92.60;;;;;;4996761;28;20407;-64
2022/08/27 12:24:14;;;;;;;4.40;4.10;;;24.80;92.20;;;;;;4996015;28;20784;-65
2022/08/27 12:26:53;;;;;;;4.20;3.80;;;24.70;92.30;;;;;;4995986;28;20422;-65
2022/08/27 12:29:47;;;;;;;6.80;4.83;;;24.70;92.00;;;;;;4996602;28;20882;-65
2022/08/27 12:32:38;;;;;;;4.80;4.43;;;24.70;91.50;;;;;;4996736;28;20804;-64
2022/08/27 12:35:12;;;;;;;3.63;3.33;;;24.70;91.30;;;;;;5003454;28;20437;-62
2022/08/27 12:38:13;;;;;;;4.43;3.70;;;24.70;91.30;;;;;;4995596;28;20455;-62
2022/08/27 12:40:45;;;;;;;4.07;3.77;;;24.80;91.20;;;;;;4967801;28;20492;-62
2022/08/27 12:43:25;;;;;;;3.83;3.20;;;24.80;91.00;;;;;;4996290;28;20415;-62
2022/08/27 12:45:54;;;;;;;3.80;3.50;;;24.80;91.00;;;;;;5008230;28;20508;-62
2022/08/27 12:48:25;;;;;;;4.50;3.67;;;24.70;91.10;;;;;;5015447;28;20469;-62
2022/08/27 12:50:59;;;;;;;3.93;3.67;;;24.60;91.40;;;;;;5015216;28;20442;-62
2022/08/27 12:53:49;;;;;;;4.97;4.43;;;24.50;91.90;;;;;;5015747;28;20429;-62
2022/08/27 12:56:21;;;;;;;5.07;3.90;;;24.50;92.00;;;;;;5002318;28;20461;-62
2022/08/27 12:58:49;;;;;;;4.23;3.83;;;24.40;91.80;;;;;;4995374;28;20477;-62
2022/08/27 13:01:35;;;;;;;4.20;4.00;;;24.30;91.70;;;;;;4995785;28;20419;-62
2022/08/27 13:04:01;;;;;;;7.73;4.43;;;24.20;91.20;;;;;;4977675;28;20941;-63
2022/08/27 13:06:33;;;;;;;4.20;3.60;;;24.20;91.70;;;;;;4995831;28;20446;-62
2022/08/27 13:09:03;;;;;;;4.23;3.50;;;24.10;91.30;;;;;;4995154;28;20437;-62
2022/08/27 13:11:43;;;;;;;5.07;3.20;;;24.00;91.80;;;;;;4996023;28;20433;-62